createdAt,value
2023-03-11T00:02:23.221Z,27.26
2023-03-11T00:04:50.044Z,27.20
2023-03-11T00:07:16.927Z,27.24
2023-03-11T00:09:43.747Z,27.18
2023-03-11T00:12:10.735Z,27.23
2023-03-11T00:14:37.692Z,27.30
2023-03-11T00:17:04.630Z,27.21
2023-03-11T00:19:32.872Z,27.17
2023-03-11T00:21:59.700Z,27.08
2023-03-11T00:24:26.578Z,27.09
2023-03-11T00:26:53.777Z,27.17
2023-03-11T00:29:20.651Z,27.18
2023-03-11T00:31:47.761Z,27.01
2023-03-11T00:34:14.720Z,27.19
2023-03-11T00:36:43.065Z,27.19
2023-03-11T00:39:11.133Z,27.13
2023-03-11T00:41:38.073Z,27.23
2023-03-11T00:44:05.107Z,27.05
2023-03-11T00:46:32.393Z,27.22
2023-03-11T00:48:59.327Z,27.07
2023-03-11T00:51:26.104Z,26.93
2023-03-11T00:53:54.419Z,27.27
2023-03-11T00:56:21.821Z,27.09
2023-03-11T00:58:48.796Z,27.04
2023-03-11T01:01:17.695Z,27.23
2023-03-11T01:03:45.041Z,27.13
2023-03-11T01:06:12.410Z,27.08
2023-03-11T01:08:39.354Z,27.07
2023-03-11T01:11:08.440Z,26.99
2023-03-11T01:13:36.380Z,27.13
2023-03-11T01:16:03.562Z,27.07
2023-03-11T01:18:33.615Z,27.07
2023-03-11T01:21:01.093Z,27.13
2023-03-11T01:23:28.145Z,27.14
2023-03-11T01:25:55.076Z,27.18
2023-03-11T01:28:23.274Z,27.02
2023-03-11T01:30:51.471Z,27.12
2023-03-11T01:33:20.921Z,27.21
2023-03-11T01:35:49.316Z,27.06
2023-03-11T01:38:17.245Z,27.27
2023-03-11T01:40:46.360Z,27.16
2023-03-11T01:43:47.016Z,27.22
2023-03-11T01:46:19.928Z,27.07
2023-03-11T01:48:49.100Z,27.16
2023-03-11T01:51:19.490Z,26.94
2023-03-11T01:53:46.998Z,27.20
2023-03-11T01:56:14.716Z,27.01
2023-03-11T01:58:46.419Z,27.14
2023-03-11T02:01:13.724Z,27.17
2023-03-11T02:03:42.341Z,27.10
2023-03-11T02:06:12.413Z,27.06
2023-03-11T02:08:40.870Z,27.14
2023-03-11T02:11:12.286Z,27.07
2023-03-11T02:13:40.771Z,27.16
2023-03-11T02:16:09.521Z,26.99
2023-03-11T02:18:38.000Z,27.14
2023-03-11T02:21:13.844Z,27.10
2023-03-11T02:23:48.216Z,27.29
2023-03-11T02:26:20.006Z,27.03
2023-03-11T02:28:50.513Z,27.03
2023-03-11T02:31:17.726Z,27.06
2023-03-11T02:33:46.631Z,27.14
2023-03-11T02:36:36.356Z,27.08
2023-03-11T02:39:05.826Z,27.06
2023-03-11T02:41:37.418Z,27.14
2023-03-11T02:44:08.266Z,27.13
2023-03-11T02:46:36.527Z,27.10
2023-03-11T02:49:04.627Z,27.24
2023-03-11T02:51:33.435Z,27.02
2023-03-11T02:54:04.983Z,27.21
2023-03-11T02:56:33.224Z,27.07
2023-03-11T02:59:00.071Z,27.20
2023-03-11T03:01:29.357Z,27.11
2023-03-11T03:03:56.518Z,27.16
2023-03-11T03:06:25.020Z,27.11
2023-03-11T03:08:52.539Z,27.29
2023-03-11T03:11:19.554Z,27.04
2023-03-11T03:13:46.634Z,27.08
2023-03-11T03:16:13.864Z,27.00
2023-03-11T03:18:42.206Z,26.98
2023-03-11T03:21:09.855Z,26.91
2023-03-11T03:23:37.843Z,27.15
2023-03-11T03:26:05.991Z,26.89
2023-03-11T03:28:36.020Z,26.96
2023-03-11T03:31:07.405Z,26.90
2023-03-11T03:33:35.960Z,26.79
2023-03-11T03:36:08.697Z,27.00
2023-03-11T03:38:40.611Z,27.01
2023-03-11T03:41:07.773Z,26.91
2023-03-11T03:43:37.085Z,26.93
2023-03-11T03:46:05.568Z,26.90
2023-03-11T03:48:39.069Z,26.96
2023-03-11T03:51:11.038Z,27.01
2023-03-11T03:53:42.593Z,26.88
2023-03-11T03:56:12.644Z,26.99
2023-03-11T03:58:39.587Z,26.75
2023-03-11T04:01:07.646Z,27.03
2023-03-11T04:03:35.796Z,26.97
2023-03-11T04:06:12.214Z,26.88
2023-03-11T04:08:40.495Z,26.86
2023-03-11T04:11:08.403Z,26.54
2023-03-11T04:13:36.688Z,27.04
2023-03-11T04:16:05.798Z,26.75
2023-03-11T04:18:33.144Z,27.02
2023-03-11T04:21:00.720Z,26.93
2023-03-11T04:23:29.299Z,26.83
2023-03-11T04:25:56.436Z,26.79
2023-03-11T04:28:23.286Z,26.83
2023-03-11T04:30:50.838Z,26.88
2023-03-11T04:33:17.847Z,26.80
2023-03-11T04:35:44.832Z,26.62
2023-03-11T04:38:11.855Z,26.64
2023-03-11T04:40:40.353Z,26.79
2023-03-11T04:43:07.652Z,26.78
2023-03-11T04:45:36.514Z,26.75
2023-03-11T04:48:04.106Z,26.85
2023-03-11T04:50:32.337Z,26.81
2023-03-11T04:52:59.780Z,26.74
2023-03-11T04:55:27.075Z,26.90
2023-03-11T04:57:55.629Z,26.63
2023-03-11T05:00:25.158Z,26.61
2023-03-11T05:03:00.665Z,26.89
2023-03-11T05:07:54.501Z,26.66
2023-03-11T05:10:22.704Z,26.74
2023-03-11T05:12:53.167Z,26.74
2023-03-11T05:15:23.044Z,26.62
2023-03-11T05:17:50.138Z,26.63
2023-03-11T05:20:17.626Z,26.58
2023-03-11T05:22:44.682Z,26.61
2023-03-11T05:25:11.569Z,26.67
2023-03-11T05:27:38.652Z,26.72
2023-03-11T05:30:08.326Z,26.51
2023-03-11T05:32:38.045Z,26.84
2023-03-11T05:35:07.346Z,26.63
2023-03-11T05:37:35.423Z,26.61
2023-03-11T05:40:06.844Z,26.64
2023-03-11T05:42:36.685Z,26.64
2023-03-11T05:45:04.872Z,26.46
2023-03-11T05:47:32.960Z,26.79
2023-03-11T05:50:01.297Z,26.70
2023-03-11T05:52:28.233Z,26.52
2023-03-11T05:54:55.191Z,26.48
2023-03-11T05:57:25.833Z,26.37
2023-03-11T05:59:52.702Z,26.54
2023-03-11T06:02:21.188Z,26.55
2023-03-11T06:04:49.194Z,26.55
2023-03-11T06:07:17.974Z,26.58
2023-03-11T06:09:50.311Z,26.55
2023-03-11T06:12:19.007Z,26.55
2023-03-11T06:15:21.207Z,26.46
2023-03-11T06:17:48.461Z,26.68
2023-03-11T06:20:15.689Z,26.54
2023-03-11T06:22:44.782Z,26.63
2023-03-11T06:25:12.874Z,26.35
2023-03-11T06:27:41.586Z,26.42
2023-03-11T06:30:10.437Z,26.37
2023-03-11T06:32:44.670Z,26.57
2023-03-11T06:35:12.223Z,26.40
2023-03-11T06:37:40.003Z,26.49
2023-03-11T06:40:10.988Z,26.42
2023-03-11T06:42:37.965Z,26.64
2023-03-11T06:45:08.406Z,26.40
2023-03-11T06:47:35.528Z,26.54
2023-03-11T06:50:06.676Z,26.61
2023-03-11T06:52:34.021Z,26.55
2023-03-11T06:55:01.021Z,26.72
2023-03-11T06:57:31.596Z,26.66
2023-03-11T07:00:02.200Z,26.62
2023-03-11T07:02:30.090Z,26.43
2023-03-11T07:04:57.285Z,26.40
2023-03-11T07:07:24.330Z,26.43
2023-03-11T07:09:55.100Z,26.52
2023-03-11T07:12:23.180Z,26.42
2023-03-11T07:14:54.756Z,26.48
2023-03-11T07:17:21.666Z,26.39
2023-03-11T07:19:52.634Z,26.49
2023-03-11T07:22:20.028Z,26.38
2023-03-11T07:24:47.848Z,26.27
2023-03-11T07:27:15.232Z,26.29
2023-03-11T07:29:42.138Z,26.28
2023-03-11T07:32:10.633Z,26.13
2023-03-11T07:34:37.577Z,26.10
2023-03-11T07:37:04.424Z,26.20
2023-03-11T07:39:31.614Z,26.02
2023-03-11T07:41:58.463Z,25.89
2023-03-11T07:44:34.172Z,25.74
2023-03-11T07:47:02.566Z,25.99
2023-03-11T07:49:30.914Z,25.55
2023-03-11T07:51:57.842Z,25.88
2023-03-11T07:54:24.787Z,25.74
2023-03-11T07:56:51.664Z,26.03
2023-03-11T07:59:18.748Z,25.75
2023-03-11T08:01:47.283Z,25.72
2023-03-11T08:04:16.601Z,25.88
2023-03-11T08:06:47.243Z,25.60
2023-03-11T08:09:14.180Z,25.44
2023-03-11T08:11:41.145Z,25.70
2023-03-11T08:14:08.165Z,25.41
2023-03-11T08:16:35.030Z,25.38
2023-03-11T08:19:02.007Z,25.38
2023-03-11T08:21:32.228Z,24.67
2023-03-11T08:24:02.416Z,24.25
2023-03-11T08:26:30.896Z,24.13
2023-03-11T08:28:58.571Z,23.93
2023-03-11T08:31:28.101Z,23.53
2023-03-11T08:33:58.142Z,24.04
2023-03-11T08:36:25.173Z,23.83
2023-03-11T08:38:52.251Z,23.75
2023-03-11T08:41:20.642Z,23.87
2023-03-11T08:43:47.687Z,23.39
2023-03-11T08:46:21.259Z,23.62
2023-03-11T08:48:48.303Z,23.38
2023-03-11T08:51:15.191Z,23.60
2023-03-11T08:53:42.552Z,22.91
2023-03-11T08:56:09.710Z,23.34
2023-03-11T08:58:37.978Z,23.50
2023-03-11T09:01:05.915Z,23.32
2023-03-11T09:03:33.412Z,23.09
2023-03-11T09:06:01.894Z,22.88
2023-03-11T09:08:29.437Z,22.69
2023-03-11T09:10:56.419Z,22.22
2023-03-11T09:13:23.541Z,22.30
2023-03-11T09:15:52.203Z,21.78
2023-03-11T09:18:19.696Z,22.17
2023-03-11T09:20:46.851Z,21.54
2023-03-11T09:23:15.779Z,21.93
2023-03-11T09:25:43.056Z,21.01
2023-03-11T09:28:09.956Z,20.87
2023-03-11T09:30:37.018Z,21.20
2023-03-11T09:33:05.430Z,21.39
2023-03-11T09:35:32.585Z,20.77
2023-03-11T09:37:59.867Z,20.94
2023-03-11T09:40:32.837Z,20.65
2023-03-11T09:43:14.917Z,20.83
2023-03-11T09:45:48.013Z,20.46
2023-03-11T09:48:27.477Z,20.65
2023-03-11T09:51:00.201Z,20.21
2023-03-11T09:53:37.917Z,20.76
2023-03-11T09:56:07.678Z,20.30
2023-03-11T09:58:40.603Z,19.59
2023-03-11T10:01:16.731Z,20.04
2023-03-11T10:03:45.788Z,19.62
2023-03-11T10:06:16.306Z,19.74
2023-03-11T10:08:46.470Z,19.45
2023-03-11T10:11:27.120Z,19.62
2023-03-11T10:14:08.362Z,19.73
2023-03-11T10:16:43.865Z,19.81
2023-03-11T10:19:22.805Z,19.71
2023-03-11T10:21:58.273Z,20.25
2023-03-11T10:24:50.441Z,19.28
2023-03-11T10:27:22.617Z,19.02
2023-03-11T10:29:57.646Z,18.16
2023-03-11T10:32:35.269Z,17.86
2023-03-11T10:35:15.097Z,17.89
2023-03-11T10:37:50.092Z,18.52
2023-03-11T10:40:26.776Z,20.26
2023-03-11T10:42:56.136Z,20.42
2023-03-11T10:45:23.603Z,20.78
2023-03-11T10:47:50.692Z,20.94
2023-03-11T10:50:20.004Z,20.90
2023-03-11T10:53:05.094Z,20.85
2023-03-11T10:55:31.974Z,20.97
2023-03-11T10:58:05.500Z,21.09
2023-03-11T11:00:32.531Z,21.36
2023-03-11T11:03:01.633Z,21.61
2023-03-11T11:05:32.840Z,21.67
2023-03-11T11:08:04.202Z,21.66
2023-03-11T11:10:34.859Z,21.71
2023-03-11T11:13:15.243Z,21.67
2023-03-11T11:15:53.572Z,21.99
2023-03-11T11:18:23.457Z,22.33
2023-03-11T11:21:00.956Z,21.72
2023-03-11T11:23:32.539Z,22.06
2023-03-11T11:26:01.450Z,22.27
2023-03-11T11:28:28.932Z,21.91
2023-03-11T11:30:57.751Z,22.17
2023-03-11T11:33:28.437Z,21.77
2023-03-11T11:35:59.094Z,21.93
2023-03-11T11:38:28.997Z,22.26
2023-03-11T11:40:59.317Z,21.94
2023-03-11T11:43:38.504Z,22.54
2023-03-11T11:46:12.031Z,22.44
2023-03-11T11:48:47.507Z,21.97
2023-03-11T11:51:21.771Z,22.45
2023-03-11T11:53:56.100Z,22.17
2023-03-11T11:56:24.557Z,22.22
2023-03-11T11:58:52.952Z,22.56
2023-03-11T12:01:29.744Z,22.80
2023-03-11T12:04:26.407Z,22.63
2023-03-11T12:07:05.911Z,22.19
2023-03-11T12:09:40.467Z,22.48
2023-03-11T12:12:16.886Z,22.18
2023-03-11T12:14:49.382Z,22.67
2023-03-11T12:17:19.758Z,22.63
2023-03-11T12:19:52.633Z,22.20
2023-03-11T12:23:06.659Z,22.43
2023-03-11T12:25:40.352Z,22.19
2023-03-11T12:28:19.866Z,22.66
2023-03-11T12:30:52.668Z,22.41
2023-03-11T12:33:28.062Z,22.20
2023-03-11T12:35:59.265Z,22.60
2023-03-11T12:38:35.538Z,22.26
2023-03-11T12:41:07.365Z,22.57
2023-03-11T12:43:58.392Z,22.20
2023-03-11T12:47:09.156Z,22.67
2023-03-11T12:49:37.323Z,22.50
2023-03-11T12:52:17.930Z,22.74
2023-03-11T12:54:47.395Z,22.59
2023-03-11T12:57:33.470Z,22.45
2023-03-11T13:00:18.258Z,22.69
2023-03-11T13:03:17.789Z,22.42
2023-03-11T13:05:54.898Z,22.86
2023-03-11T13:08:23.922Z,22.34
2023-03-11T13:10:53.698Z,22.62
2023-03-11T13:13:36.789Z,22.57
2023-03-11T13:16:37.031Z,22.77
2023-03-11T13:19:47.677Z,22.26
2023-03-11T13:22:54.243Z,22.83
2023-03-11T13:25:35.143Z,22.70
2023-03-11T13:28:36.950Z,22.91
2023-03-11T13:31:20.906Z,22.73
2023-03-11T13:33:53.564Z,22.46
2023-03-11T13:37:00.272Z,22.61
2023-03-11T13:39:48.269Z,22.70
2023-03-11T13:42:22.345Z,22.54
2023-03-11T13:44:51.551Z,22.60
2023-03-11T13:47:21.106Z,22.81
2023-03-11T13:50:59.308Z,22.38
2023-03-11T13:53:32.035Z,22.19
2023-03-11T13:55:59.060Z,22.36
2023-03-11T13:58:28.056Z,22.48
2023-03-11T14:00:58.059Z,23.02
2023-03-11T14:03:26.313Z,22.58
2023-03-11T14:05:58.577Z,22.71
2023-03-11T14:08:28.142Z,22.44
2023-03-11T14:10:56.302Z,22.89
2023-03-11T14:13:24.742Z,22.79
2023-03-11T14:16:04.367Z,22.93
2023-03-11T14:18:37.891Z,22.27
2023-03-11T14:21:07.358Z,22.28
2023-03-11T14:23:36.674Z,22.12
2023-03-11T14:26:07.744Z,22.34
2023-03-11T14:28:40.178Z,22.05
2023-03-11T14:31:22.743Z,21.71
2023-03-11T14:33:55.562Z,21.83
2023-03-11T14:36:22.453Z,22.31
2023-03-11T14:38:49.308Z,21.72
2023-03-11T14:41:16.496Z,21.76
2023-03-11T14:43:48.221Z,21.75
2023-03-11T14:46:21.318Z,21.40
2023-03-11T14:48:49.456Z,21.74
2023-03-11T14:51:21.012Z,21.89
2023-03-11T14:53:54.513Z,21.92
2023-03-11T14:56:26.061Z,21.59
2023-03-11T14:59:07.314Z,21.33
2023-03-11T15:01:41.249Z,21.71
2023-03-11T15:04:12.394Z,21.73
2023-03-11T15:06:42.420Z,21.61
2023-03-11T15:09:12.290Z,21.88
2023-03-11T15:11:47.264Z,21.85
2023-03-11T15:14:20.399Z,21.86
2023-03-11T15:16:49.039Z,21.64
2023-03-11T15:19:24.016Z,21.51
2023-03-11T15:21:54.520Z,21.70
2023-03-11T15:24:23.307Z,22.10
2023-03-11T15:26:55.635Z,22.01
2023-03-11T15:29:23.034Z,21.67
2023-03-11T15:31:51.423Z,21.78
2023-03-11T15:34:30.917Z,21.70
2023-03-11T15:37:18.289Z,21.66
2023-03-11T15:39:47.504Z,21.65
2023-03-11T15:42:19.697Z,21.52
2023-03-11T15:45:01.960Z,21.50
2023-03-11T15:47:30.454Z,21.75
2023-03-11T15:49:57.339Z,21.99
2023-03-11T15:52:24.299Z,21.63
2023-03-11T15:54:55.780Z,21.79
2023-03-11T15:57:27.514Z,21.60
2023-03-11T15:59:55.309Z,21.64
2023-03-11T16:02:26.317Z,21.38
2023-03-11T16:04:55.454Z,21.94
2023-03-11T16:07:38.283Z,21.54
2023-03-11T16:10:06.798Z,21.49
2023-03-11T16:12:33.706Z,21.35
2023-03-11T16:15:00.823Z,21.56
2023-03-11T16:17:42.943Z,21.63
2023-03-11T16:20:15.483Z,21.53
2023-03-11T16:22:42.693Z,21.74
2023-03-11T16:25:19.678Z,21.58
2023-03-11T16:27:47.223Z,21.34
2023-03-11T16:30:16.283Z,21.20
2023-03-11T16:32:46.300Z,21.05
2023-03-11T16:35:13.918Z,21.32
2023-03-11T16:37:43.368Z,21.38
2023-03-11T16:40:13.572Z,21.01
2023-03-11T16:42:40.811Z,21.30
2023-03-11T16:45:11.003Z,21.23
2023-03-11T16:47:37.877Z,20.94
2023-03-11T16:50:05.756Z,21.59
2023-03-11T16:52:32.917Z,21.36
2023-03-11T16:55:01.273Z,21.21
2023-03-11T16:57:29.849Z,21.04
2023-03-11T16:59:56.725Z,21.15
2023-03-11T17:02:24.644Z,21.26
2023-03-11T17:04:51.665Z,21.28
2023-03-11T17:07:18.584Z,21.29
2023-03-11T17:09:45.499Z,21.02
2023-03-11T17:12:15.785Z,21.22
2023-03-11T17:14:42.693Z,21.32
2023-03-11T17:17:09.630Z,21.21
2023-03-11T17:19:36.774Z,21.33
2023-03-11T17:22:03.875Z,21.27
2023-03-11T17:24:30.817Z,21.26
2023-03-11T17:26:57.633Z,21.18
2023-03-11T17:29:25.826Z,21.11
2023-03-11T17:31:52.709Z,20.98
2023-03-11T17:34:19.781Z,21.06
2023-03-11T17:36:46.869Z,21.33
2023-03-11T17:39:13.861Z,20.86
2023-03-11T17:41:41.199Z,21.23
2023-03-11T17:44:08.036Z,20.99
2023-03-11T17:46:36.393Z,21.32
2023-03-11T17:49:03.339Z,21.23
2023-03-11T17:51:36.811Z,21.21
2023-03-11T17:54:16.309Z,20.88
2023-03-11T17:56:43.619Z,20.86
2023-03-11T17:59:11.242Z,21.12
2023-03-11T18:01:41.738Z,21.13
2023-03-11T18:04:14.736Z,20.98
2023-03-11T18:06:42.320Z,21.14
2023-03-11T18:09:09.575Z,21.10
2023-03-11T18:11:37.018Z,21.18
2023-03-11T18:14:04.323Z,20.63
2023-03-11T18:16:34.400Z,20.99
2023-03-11T18:19:02.597Z,21.04
2023-03-11T18:21:30.587Z,20.86
2023-03-11T18:23:59.153Z,21.14
2023-03-11T18:26:28.109Z,20.68
2023-03-11T18:28:55.971Z,20.94
2023-03-11T18:31:32.623Z,20.99
2023-03-11T18:34:03.077Z,20.84
2023-03-11T18:36:31.726Z,21.21
2023-03-11T18:38:59.952Z,20.93
2023-03-11T18:41:28.050Z,21.01
2023-03-11T18:43:58.798Z,20.85
2023-03-11T18:46:26.986Z,20.79
2023-03-11T18:48:55.106Z,21.00
2023-03-11T18:51:23.838Z,20.72
2023-03-11T18:53:50.627Z,21.07
2023-03-11T18:56:18.626Z,20.77
2023-03-11T18:58:45.806Z,20.95
2023-03-11T19:01:15.128Z,21.01
2023-03-11T19:03:43.484Z,20.63
2023-03-11T19:06:12.074Z,20.83
2023-03-11T19:08:40.720Z,20.99
2023-03-11T19:11:07.906Z,20.87
2023-03-11T19:13:46.138Z,21.10
2023-03-11T19:16:15.323Z,21.15
2023-03-11T19:18:42.271Z,21.25
2023-03-11T19:21:11.508Z,21.11
2023-03-11T19:23:38.354Z,20.89
2023-03-11T19:26:07.133Z,21.20
2023-03-11T19:28:34.146Z,21.08
2023-03-11T19:31:01.566Z,21.27
2023-03-11T19:33:28.884Z,21.48
2023-03-11T19:35:57.718Z,21.48
2023-03-11T19:38:27.134Z,21.47
2023-03-11T19:40:54.769Z,21.78
2023-03-11T19:43:23.932Z,21.63
2023-03-11T19:45:50.981Z,21.68
2023-03-11T19:48:18.603Z,21.75
2023-03-11T19:50:47.163Z,21.97
2023-03-11T19:53:14.015Z,21.72
2023-03-11T19:55:43.165Z,21.80
2023-03-11T19:58:10.282Z,21.80
2023-03-11T20:00:40.121Z,21.94
2023-03-11T20:03:07.357Z,21.96
2023-03-11T20:05:35.451Z,22.09
2023-03-11T20:08:02.442Z,21.99
2023-03-11T20:10:29.619Z,22.02
2023-03-11T20:13:02.480Z,21.96
2023-03-11T20:15:32.582Z,22.04
2023-03-11T20:18:01.327Z,22.36
2023-03-11T20:20:28.572Z,22.09
2023-03-11T20:22:56.080Z,22.23
2023-03-11T20:25:24.953Z,22.28
2023-03-11T20:27:52.233Z,22.11
2023-03-11T20:30:22.017Z,22.05
2023-03-11T20:32:49.120Z,22.03
2023-03-11T20:35:17.898Z,22.20
2023-03-11T20:37:45.460Z,22.17
2023-03-11T20:40:14.237Z,22.08
2023-03-11T20:42:43.168Z,22.28
2023-03-11T20:45:11.579Z,22.42
2023-03-11T20:47:38.617Z,22.55
2023-03-11T20:50:06.733Z,22.37
2023-03-11T20:52:35.800Z,22.37
2023-03-11T20:55:02.994Z,22.31
2023-03-11T20:57:29.951Z,22.23
2023-03-11T20:59:56.798Z,22.50
2023-03-11T21:02:23.862Z,22.59
2023-03-11T21:04:50.918Z,22.51
2023-03-11T21:07:17.875Z,22.46
2023-03-11T21:09:46.172Z,22.36
2023-03-11T21:12:13.130Z,22.57
2023-03-11T21:14:40.381Z,22.55
2023-03-11T21:17:07.290Z,22.47
2023-03-11T21:19:34.451Z,22.61
2023-03-11T21:22:01.497Z,22.53
2023-03-11T21:24:28.548Z,22.76
2023-03-11T21:26:57.035Z,22.82
2023-03-11T21:29:24.050Z,22.64
2023-03-11T21:31:51.386Z,22.77
2023-03-11T21:34:18.403Z,22.61
2023-03-11T21:36:45.492Z,22.99
2023-03-11T21:39:12.740Z,23.04
2023-03-11T21:41:40.129Z,22.83
2023-03-11T21:44:08.737Z,23.00
2023-03-11T21:46:35.795Z,23.03
2023-03-11T21:49:03.084Z,23.00
2023-03-11T21:51:32.088Z,23.06
2023-03-11T21:53:59.409Z,23.25
2023-03-11T21:56:26.437Z,23.09
2023-03-11T21:58:53.873Z,23.13
2023-03-11T22:01:22.482Z,23.14
2023-03-11T22:03:49.641Z,23.20
2023-03-11T22:06:16.707Z,23.17
2023-03-11T22:08:43.679Z,23.32
2023-03-11T22:11:17.545Z,23.21
2023-03-11T22:13:45.397Z,23.57
2023-03-11T22:16:12.729Z,23.35
2023-03-11T22:18:41.427Z,23.48
2023-03-11T22:21:10.447Z,23.20
2023-03-11T22:23:37.857Z,23.45
2023-03-11T22:26:05.007Z,23.17
2023-03-11T22:28:32.031Z,23.57
2023-03-11T22:30:58.913Z,23.39
2023-03-11T22:33:26.309Z,23.34
2023-03-11T22:35:57.388Z,23.30
2023-03-11T22:38:24.439Z,23.51
2023-03-11T22:40:51.649Z,23.30
2023-03-11T22:43:18.759Z,23.56
2023-03-11T22:45:46.390Z,23.40
2023-03-11T22:48:13.935Z,23.42
2023-03-11T22:50:41.737Z,23.49
2023-03-11T22:53:11.461Z,23.44
2023-03-11T22:55:40.135Z,23.42
2023-03-11T22:58:07.233Z,23.48
2023-03-11T23:00:36.994Z,23.55
2023-03-11T23:03:04.279Z,23.70
2023-03-11T23:05:31.226Z,23.55
2023-03-11T23:07:58.181Z,24.00
2023-03-11T23:10:26.441Z,23.59
2023-03-11T23:12:53.267Z,23.61
2023-03-11T23:15:20.255Z,23.41
2023-03-11T23:17:47.102Z,23.59
2023-03-11T23:20:15.965Z,23.58
2023-03-11T23:22:43.039Z,23.71
2023-03-11T23:25:13.221Z,23.57
2023-03-11T23:27:42.638Z,23.71
2023-03-11T23:30:11.965Z,23.68
2023-03-11T23:32:39.386Z,23.54
2023-03-11T23:35:07.559Z,23.74
2023-03-11T23:37:34.437Z,23.72
2023-03-11T23:40:01.466Z,23.74
2023-03-11T23:42:31.997Z,23.62
2023-03-11T23:45:00.744Z,23.75
2023-03-11T23:47:30.029Z,23.65
2023-03-11T23:49:56.908Z,23.61
2023-03-11T23:52:24.312Z,23.67
2023-03-11T23:54:51.165Z,23.68
2023-03-11T23:57:18.086Z,23.64
2023-03-11T23:59:45.168Z,23.79
